sensor_id;sensor_type;location;lat;lon;timestamp;P1;durP1;ratioP1;P2;durP2;ratioP2
32216;SDS011;18709;51.140;4.088;2022-07-29T00:02:12;10.43;;;4.30;;
32216;SDS011;18709;51.140;4.088;2022-07-29T00:04:38;11.18;;;5.03;;
32216;SDS011;18709;51.140;4.088;2022-07-29T00:07:03;11.10;;;4.93;;
32216;SDS011;18709;51.140;4.088;2022-07-29T00:09:29;12.18;;;4.35;;
32216;SDS011;18709;51.140;4.088;2022-07-29T00:11:56;9.82;;;4.25;;
32216;SDS011;18709;51.140;4.088;2022-07-29T00:14:25;10.43;;;4.18;;
32216;SDS011;18709;51.140;4.088;2022-07-29T00:16:51;9.68;;;4.18;;
32216;SDS011;18709;51.140;4.088;2022-07-29T00:19:17;9.45;;;4.53;;
32216;SDS011;18709;51.140;4.088;2022-07-29T00:21:43;13.65;;;4.35;;
32216;SDS011;18709;51.140;4.088;2022-07-29T00:24:09;8.45;;;4.05;;
32216;SDS011;18709;51.140;4.088;2022-07-29T00:26:35;6.85;;;3.67;;
32216;SDS011;18709;51.140;4.088;2022-07-29T00:29:01;9.85;;;4.18;;
32216;SDS011;18709;51.140;4.088;2022-07-29T00:31:28;8.32;;;3.88;;
32216;SDS011;18709;51.140;4.088;2022-07-29T00:33:54;7.60;;;3.65;;
32216;SDS011;18709;51.140;4.088;2022-07-29T00:36:20;8.85;;;3.70;;
32216;SDS011;18709;51.140;4.088;2022-07-29T00:38:49;12.52;;;3.53;;
32216;SDS011;18709;51.140;4.088;2022-07-29T00:41:16;8.48;;;3.25;;
32216;SDS011;18709;51.140;4.088;2022-07-29T00:43:43;8.73;;;3.28;;
32216;SDS011;18709;51.140;4.088;2022-07-29T00:46:09;7.28;;;3.08;;
32216;SDS011;18709;51.140;4.088;2022-07-29T00:48:36;7.68;;;2.67;;
32216;SDS011;18709;51.140;4.088;2022-07-29T00:51:03;8.48;;;2.63;;
32216;SDS011;18709;51.140;4.088;2022-07-29T00:53:32;4.65;;;2.70;;
32216;SDS011;18709;51.140;4.088;2022-07-29T00:55:58;5.65;;;2.90;;
32216;SDS011;18709;51.140;4.088;2022-07-29T00:58:24;8.25;;;2.30;;
32216;SDS011;18709;51.140;4.088;2022-07-29T01:00:51;6.35;;;2.42;;
32216;SDS011;18709;51.140;4.088;2022-07-29T01:03:18;5.35;;;2.72;;
32216;SDS011;18709;51.140;4.088;2022-07-29T01:05:44;7.30;;;2.78;;
32216;SDS011;18709;51.140;4.088;2022-07-29T01:08:11;4.57;;;2.58;;
32216;SDS011;18709;51.140;4.088;2022-07-29T01:10:39;12.63;;;3.03;;
32216;SDS011;18709;51.140;4.088;2022-07-29T01:13:06;6.03;;;2.83;;
32216;SDS011;18709;51.140;4.088;2022-07-29T01:15:34;8.13;;;2.28;;
32216;SDS011;18709;51.140;4.088;2022-07-29T01:18:16;7.88;;;2.80;;
32216;SDS011;18709;51.140;4.088;2022-07-29T01:26:43;4.03;;;2.15;;
32216;SDS011;18709;51.140;4.088;2022-07-29T01:29:38;7.82;;;2.55;;
32216;SDS011;18709;51.140;4.088;2022-07-29T01:32:10;5.88;;;2.45;;
32216;SDS011;18709;51.140;4.088;2022-07-29T01:37:45;7.75;;;2.97;;
32216;SDS011;18709;51.140;4.088;2022-07-29T01:43:31;6.47;;;2.38;;
32216;SDS011;18709;51.140;4.088;2022-07-29T01:46:14;7.55;;;2.28;;
32216;SDS011;18709;51.140;4.088;2022-07-29T01:48:51;7.43;;;2.60;;
32216;SDS011;18709;51.140;4.088;2022-07-29T01:51:29;7.63;;;2.00;;
32216;SDS011;18709;51.140;4.088;2022-07-29T01:56:44;10.93;;;2.55;;
32216;SDS011;18709;51.140;4.088;2022-07-29T01:59:13;4.85;;;2.08;;
32216;SDS011;18709;51.140;4.088;2022-07-29T02:01:40;4.55;;;2.08;;
32216;SDS011;18709;51.140;4.088;2022-07-29T02:04:09;5.50;;;2.50;;
32216;SDS011;18709;51.140;4.088;2022-07-29T02:06:37;7.40;;;2.53;;
32216;SDS011;18709;51.140;4.088;2022-07-29T02:09:05;3.92;;;2.28;;
32216;SDS011;18709;51.140;4.088;2022-07-29T02:11:33;6.47;;;2.60;;
32216;SDS011;18709;51.140;4.088;2022-07-29T02:14:02;4.78;;;2.33;;
32216;SDS011;18709;51.140;4.088;2022-07-29T02:16:30;4.50;;;2.35;;
32216;SDS011;18709;51.140;4.088;2022-07-29T02:18:58;5.25;;;2.60;;
32216;SDS011;18709;51.140;4.088;2022-07-29T02:21:28;5.00;;;2.67;;
32216;SDS011;18709;51.140;4.088;2022-07-29T02:23:56;7.57;;;2.47;;
32216;SDS011;18709;51.140;4.088;2022-07-29T02:26:24;8.45;;;2.65;;
32216;SDS011;18709;51.140;4.088;2022-07-29T02:28:52;5.35;;;2.20;;
32216;SDS011;18709;51.140;4.088;2022-07-29T02:31:23;7.22;;;2.03;;
32216;SDS011;18709;51.140;4.088;2022-07-29T02:33:51;3.22;;;1.83;;
32216;SDS011;18709;51.140;4.088;2022-07-29T02:36:18;4.38;;;2.05;;
32216;SDS011;18709;51.140;4.088;2022-07-29T02:38:47;3.90;;;2.17;;
32216;SDS011;18709;51.140;4.088;2022-07-29T02:43:48;8.32;;;2.30;;
32216;SDS011;18709;51.140;4.088;2022-07-29T02:46:20;4.72;;;2.08;;
32216;SDS011;18709;51.140;4.088;2022-07-29T02:49:04;4.50;;;1.90;;
32216;SDS011;18709;51.140;4.088;2022-07-29T02:51:37;2.85;;;2.05;;
32216;SDS011;18709;51.140;4.088;2022-07-29T02:54:08;5.55;;;1.75;;
32216;SDS011;18709;51.140;4.088;2022-07-29T02:56:35;6.72;;;1.90;;
32216;SDS011;18709;51.140;4.088;2022-07-29T02:59:05;4.95;;;2.00;;
32216;SDS011;18709;51.140;4.088;2022-07-29T03:04:03;6.53;;;2.00;;
32216;SDS011;18709;51.140;4.088;2022-07-29T03:06:30;4.60;;;2.03;;
32216;SDS011;18709;51.140;4.088;2022-07-29T03:08:57;4.97;;;2.22;;
32216;SDS011;18709;51.140;4.088;2022-07-29T03:11:25;4.45;;;1.77;;
32216;SDS011;18709;51.140;4.088;2022-07-29T03:13:51;6.40;;;1.90;;
32216;SDS011;18709;51.140;4.088;2022-07-29T03:16:18;4.50;;;2.20;;
32216;SDS011;18709;51.140;4.088;2022-07-29T03:18:45;4.05;;;1.85;;
32216;SDS011;18709;51.140;4.088;2022-07-29T03:21:11;4.38;;;2.10;;
32216;SDS011;18709;51.140;4.088;2022-07-29T03:23:37;9.30;;;2.10;;
32216;SDS011;18709;51.140;4.088;2022-07-29T03:26:10;3.63;;;2.03;;
32216;SDS011;18709;51.140;4.088;2022-07-29T03:28:36;4.10;;;1.85;;
32216;SDS011;18709;51.140;4.088;2022-07-29T03:31:01;4.03;;;2.00;;
32216;SDS011;18709;51.140;4.088;2022-07-29T03:33:27;6.88;;;2.67;;
32216;SDS011;18709;51.140;4.088;2022-07-29T03:35:55;17.60;;;2.30;;
32216;SDS011;18709;51.140;4.088;2022-07-29T03:38:21;3.50;;;1.83;;
32216;SDS011;18709;51.140;4.088;2022-07-29T03:40:58;4.00;;;2.40;;
32216;SDS011;18709;51.140;4.088;2022-07-29T03:43:31;8.15;;;2.50;;
32216;SDS011;18709;51.140;4.088;2022-07-29T03:45:58;4.35;;;1.98;;
32216;SDS011;18709;51.140;4.088;2022-07-29T03:48:25;4.60;;;2.55;;
32216;SDS011;18709;51.140;4.088;2022-07-29T03:50:54;7.68;;;2.10;;
32216;SDS011;18709;51.140;4.088;2022-07-29T03:53:20;6.68;;;2.15;;
32216;SDS011;18709;51.140;4.088;2022-07-29T03:55:50;4.57;;;2.10;;
32216;SDS011;18709;51.140;4.088;2022-07-29T03:58:20;4.38;;;2.00;;
32216;SDS011;18709;51.140;4.088;2022-07-29T04:00:47;5.68;;;1.90;;
32216;SDS011;18709;51.140;4.088;2022-07-29T04:03:13;6.93;;;2.35;;
32216;SDS011;18709;51.140;4.088;2022-07-29T04:05:39;6.15;;;2.20;;
32216;SDS011;18709;51.140;4.088;2022-07-29T04:08:05;6.30;;;2.10;;
32216;SDS011;18709;51.140;4.088;2022-07-29T04:10:31;5.93;;;2.00;;
32216;SDS011;18709;51.140;4.088;2022-07-29T04:12:57;3.85;;;2.20;;
32216;SDS011;18709;51.140;4.088;2022-07-29T04:15:23;5.10;;;2.53;;
32216;SDS011;18709;51.140;4.088;2022-07-29T04:17:49;7.95;;;1.95;;
32216;SDS011;18709;51.140;4.088;2022-07-29T04:20:15;6.03;;;2.03;;
32216;SDS011;18709;51.140;4.088;2022-07-29T04:22:41;6.55;;;2.50;;
32216;SDS011;18709;51.140;4.088;2022-07-29T04:25:07;5.10;;;2.00;;
32216;SDS011;18709;51.140;4.088;2022-07-29T04:27:33;4.38;;;2.58;;
32216;SDS011;18709;51.140;4.088;2022-07-29T04:29:59;6.75;;;2.47;;
32216;SDS011;18709;51.140;4.088;2022-07-29T04:32:25;4.43;;;2.15;;
32216;SDS011;18709;51.140;4.088;2022-07-29T04:37:20;4.90;;;2.25;;
32216;SDS011;18709;51.140;4.088;2022-07-29T04:39:45;6.03;;;2.85;;
32216;SDS011;18709;51.140;4.088;2022-07-29T04:42:11;5.50;;;2.22;;
32216;SDS011;18709;51.140;4.088;2022-07-29T04:44:38;5.32;;;2.28;;
32216;SDS011;18709;51.140;4.088;2022-07-29T04:47:03;7.15;;;2.30;;
32216;SDS011;18709;51.140;4.088;2022-07-29T04:49:32;6.18;;;2.20;;
32216;SDS011;18709;51.140;4.088;2022-07-29T04:51:58;6.75;;;2.55;;
32216;SDS011;18709;51.140;4.088;2022-07-29T04:54:24;4.35;;;1.90;;
32216;SDS011;18709;51.140;4.088;2022-07-29T04:56:50;7.53;;;2.58;;
32216;SDS011;18709;51.140;4.088;2022-07-29T04:59:16;5.07;;;2.50;;
32216;SDS011;18709;51.140;4.088;2022-07-29T05:01:42;6.25;;;2.63;;
32216;SDS011;18709;51.140;4.088;2022-07-29T05:04:07;4.78;;;2.10;;
32216;SDS011;18709;51.140;4.088;2022-07-29T05:06:33;5.95;;;2.70;;
32216;SDS011;18709;51.140;4.088;2022-07-29T05:08:59;5.47;;;2.85;;
32216;SDS011;18709;51.140;4.088;2022-07-29T05:11:24;3.05;;;2.10;;
32216;SDS011;18709;51.140;4.088;2022-07-29T05:13:50;5.82;;;2.42;;
32216;SDS011;18709;51.140;4.088;2022-07-29T05:16:16;7.57;;;2.70;;
32216;SDS011;18709;51.140;4.088;2022-07-29T05:18:41;5.43;;;2.30;;
32216;SDS011;18709;51.140;4.088;2022-07-29T05:21:07;4.90;;;2.53;;
32216;SDS011;18709;51.140;4.088;2022-07-29T05:23:33;4.20;;;1.90;;
32216;SDS011;18709;51.140;4.088;2022-07-29T05:25:59;6.90;;;3.10;;
32216;SDS011;18709;51.140;4.088;2022-07-29T05:28:24;4.78;;;2.42;;
32216;SDS011;18709;51.140;4.088;2022-07-29T05:30:50;8.40;;;3.00;;
32216;SDS011;18709;51.140;4.088;2022-07-29T05:33:16;5.85;;;2.35;;
32216;SDS011;18709;51.140;4.088;2022-07-29T05:35:41;5.18;;;2.45;;
32216;SDS011;18709;51.140;4.088;2022-07-29T05:38:07;3.50;;;2.20;;
32216;SDS011;18709;51.140;4.088;2022-07-29T05:40:33;10.82;;;2.25;;
32216;SDS011;18709;51.140;4.088;2022-07-29T05:42:59;4.82;;;2.30;;
32216;SDS011;18709;51.140;4.088;2022-07-29T05:45:25;3.28;;;1.95;;
32216;SDS011;18709;51.140;4.088;2022-07-29T05:47:50;5.10;;;2.47;;
32216;SDS011;18709;51.140;4.088;2022-07-29T05:50:16;5.10;;;2.28;;
32216;SDS011;18709;51.140;4.088;2022-07-29T05:52:42;8.77;;;2.72;;
32216;SDS011;18709;51.140;4.088;2022-07-29T05:55:08;4.15;;;2.40;;
32216;SDS011;18709;51.140;4.088;2022-07-29T05:57:34;8.20;;;3.10;;
32216;SDS011;18709;51.140;4.088;2022-07-29T05:59:59;12.07;;;2.78;;
32216;SDS011;18709;51.140;4.088;2022-07-29T06:02:25;6.18;;;2.38;;
32216;SDS011;18709;51.140;4.088;2022-07-29T06:04:51;7.93;;;2.90;;
32216;SDS011;18709;51.140;4.088;2022-07-29T06:07:17;5.25;;;2.30;;
32216;SDS011;18709;51.140;4.088;2022-07-29T06:09:42;5.45;;;2.78;;
32216;SDS011;18709;51.140;4.088;2022-07-29T06:12:08;8.75;;;3.88;;
32216;SDS011;18709;51.140;4.088;2022-07-29T06:14:34;5.30;;;2.65;;
32216;SDS011;18709;51.140;4.088;2022-07-29T06:17:00;6.95;;;2.70;;
32216;SDS011;18709;51.140;4.088;2022-07-29T06:19:26;8.07;;;2.90;;
32216;SDS011;18709;51.140;4.088;2022-07-29T06:21:52;6.40;;;2.70;;
32216;SDS011;18709;51.140;4.088;2022-07-29T06:24:18;7.20;;;2.88;;
32216;SDS011;18709;51.140;4.088;2022-07-29T06:26:43;8.07;;;2.67;;
32216;SDS011;18709;51.140;4.088;2022-07-29T06:29:09;5.88;;;3.03;;
32216;SDS011;18709;51.140;4.088;2022-07-29T06:31:38;10.35;;;3.15;;
32216;SDS011;18709;51.140;4.088;2022-07-29T06:34:04;6.18;;;2.95;;
32216;SDS011;18709;51.140;4.088;2022-07-29T06:36:30;4.18;;;2.60;;
32216;SDS011;18709;51.140;4.088;2022-07-29T06:38:55;5.97;;;2.95;;
32216;SDS011;18709;51.140;4.088;2022-07-29T06:41:21;11.20;;;3.00;;
32216;SDS011;18709;51.140;4.088;2022-07-29T06:43:48;9.05;;;3.10;;
32216;SDS011;18709;51.140;4.088;2022-07-29T06:46:16;5.35;;;3.08;;
32216;SDS011;18709;51.140;4.088;2022-07-29T06:48:42;8.50;;;2.90;;
32216;SDS011;18709;51.140;4.088;2022-07-29T06:51:09;9.73;;;3.30;;
32216;SDS011;18709;51.140;4.088;2022-07-29T06:53:36;7.75;;;2.80;;
32216;SDS011;18709;51.140;4.088;2022-07-29T06:56:03;5.57;;;3.60;;
32216;SDS011;18709;51.140;4.088;2022-07-29T06:58:30;8.15;;;2.80;;
32216;SDS011;18709;51.140;4.088;2022-07-29T07:00:57;7.15;;;3.40;;
32216;SDS011;18709;51.140;4.088;2022-07-29T07:03:23;8.52;;;3.45;;
32216;SDS011;18709;51.140;4.088;2022-07-29T07:05:50;5.38;;;3.13;;
32216;SDS011;18709;51.140;4.088;2022-07-29T07:08:17;6.13;;;2.70;;
32216;SDS011;18709;51.140;4.088;2022-07-29T07:10:44;6.65;;;2.70;;
32216;SDS011;18709;51.140;4.088;2022-07-29T07:13:10;6.65;;;2.20;;
32216;SDS011;18709;51.140;4.088;2022-07-29T07:15:36;6.20;;;3.08;;
32216;SDS011;18709;51.140;4.088;2022-07-29T07:18:03;4.05;;;2.63;;
32216;SDS011;18709;51.140;4.088;2022-07-29T07:20:30;6.78;;;3.10;;
32216;SDS011;18709;51.140;4.088;2022-07-29T07:22:56;7.68;;;3.05;;
32216;SDS011;18709;51.140;4.088;2022-07-29T07:25:22;9.13;;;3.80;;
32216;SDS011;18709;51.140;4.088;2022-07-29T07:27:48;8.48;;;2.60;;
32216;SDS011;18709;51.140;4.088;2022-07-29T07:30:13;5.88;;;2.50;;
32216;SDS011;18709;51.140;4.088;2022-07-29T07:32:39;6.75;;;2.90;;
32216;SDS011;18709;51.140;4.088;2022-07-29T07:35:06;5.93;;;2.70;;
32216;SDS011;18709;51.140;4.088;2022-07-29T07:37:32;5.18;;;3.20;;
32216;SDS011;18709;51.140;4.088;2022-07-29T07:39:59;7.38;;;3.53;;
32216;SDS011;18709;51.140;4.088;2022-07-29T07:42:25;7.97;;;3.28;;
32216;SDS011;18709;51.140;4.088;2022-07-29T07:44:50;7.55;;;3.03;;
32216;SDS011;18709;51.140;4.088;2022-07-29T07:47:16;6.32;;;3.45;;
32216;SDS011;18709;51.140;4.088;2022-07-29T07:49:47;7.57;;;3.60;;
32216;SDS011;18709;51.140;4.088;2022-07-29T07:52:15;5.40;;;3.20;;
32216;SDS011;18709;51.140;4.088;2022-07-29T07:54:42;5.97;;;2.72;;
32216;SDS011;18709;51.140;4.088;2022-07-29T07:57:10;8.20;;;3.20;;
32216;SDS011;18709;51.140;4.088;2022-07-29T07:59:37;5.40;;;2.75;;
32216;SDS011;18709;51.140;4.088;2022-07-29T08:02:03;6.38;;;2.88;;
32216;SDS011;18709;51.140;4.088;2022-07-29T08:04:29;4.05;;;2.72;;
32216;SDS011;18709;51.140;4.088;2022-07-29T08:06:55;4.15;;;2.80;;
32216;SDS011;18709;51.140;4.088;2022-07-29T08:09:22;6.75;;;3.13;;
32216;SDS011;18709;51.140;4.088;2022-07-29T08:11:49;7.18;;;2.97;;
32216;SDS011;18709;51.140;4.088;2022-07-29T08:14:15;8.80;;;2.70;;
32216;SDS011;18709;51.140;4.088;2022-07-29T08:16:41;4.13;;;2.42;;
32216;SDS011;18709;51.140;4.088;2022-07-29T08:19:07;4.70;;;2.05;;
32216;SDS011;18709;51.140;4.088;2022-07-29T08:21:34;5.35;;;2.80;;
32216;SDS011;18709;51.140;4.088;2022-07-29T08:24:00;7.53;;;3.50;;
32216;SDS011;18709;51.140;4.088;2022-07-29T08:26:44;4.90;;;2.75;;
32216;SDS011;18709;51.140;4.088;2022-07-29T08:29:10;6.18;;;2.10;;
32216;SDS011;18709;51.140;4.088;2022-07-29T08:31:36;4.72;;;2.45;;
32216;SDS011;18709;51.140;4.088;2022-07-29T08:34:03;6.90;;;3.45;;
32216;SDS011;18709;51.140;4.088;2022-07-29T08:36:29;7.72;;;2.65;;
32216;SDS011;18709;51.140;4.088;2022-07-29T08:38:56;4.97;;;2.08;;
32216;SDS011;18709;51.140;4.088;2022-07-29T08:41:22;4.72;;;2.33;;
32216;SDS011;18709;51.140;4.088;2022-07-29T08:43:49;9.05;;;2.30;;
32216;SDS011;18709;51.140;4.088;2022-07-29T08:46:15;3.50;;;1.98;;
32216;SDS011;18709;51.140;4.088;2022-07-29T08:48:42;7.40;;;2.03;;
32216;SDS011;18709;51.140;4.088;2022-07-29T08:51:08;3.90;;;1.80;;
32216;SDS011;18709;51.140;4.088;2022-07-29T08:53:47;3.17;;;1.65;;
32216;SDS011;18709;51.140;4.088;2022-07-29T08:56:15;9.43;;;2.15;;
32216;SDS011;18709;51.140;4.088;2022-07-29T08:58:43;6.03;;;1.83;;
32216;SDS011;18709;51.140;4.088;2022-07-29T09:01:10;10.55;;;2.03;;
32216;SDS011;18709;51.140;4.088;2022-07-29T09:03:39;3.67;;;1.60;;
32216;SDS011;18709;51.140;4.088;2022-07-29T09:06:05;6.53;;;2.08;;
32216;SDS011;18709;51.140;4.088;2022-07-29T09:08:31;4.40;;;1.52;;
32216;SDS011;18709;51.140;4.088;2022-07-29T09:10:57;5.75;;;2.05;;
32216;SDS011;18709;51.140;4.088;2022-07-29T09:13:26;8.00;;;1.45;;
32216;SDS011;18709;51.140;4.088;2022-07-29T09:15:52;4.90;;;1.67;;
32216;SDS011;18709;51.140;4.088;2022-07-29T09:18:33;6.93;;;1.88;;
32216;SDS011;18709;51.140;4.088;2022-07-29T09:21:04;2.20;;;1.10;;
32216;SDS011;18709;51.140;4.088;2022-07-29T09:26:40;5.00;;;1.42;;
32216;SDS011;18709;51.140;4.088;2022-07-29T09:29:11;5.28;;;1.58;;
32216;SDS011;18709;51.140;4.088;2022-07-29T09:31:38;4.78;;;2.00;;
32216;SDS011;18709;51.140;4.088;2022-07-29T09:34:06;6.78;;;1.77;;
32216;SDS011;18709;51.140;4.088;2022-07-29T09:39:08;6.05;;;1.70;;
32216;SDS011;18709;51.140;4.088;2022-07-29T09:41:56;5.95;;;1.20;;
32216;SDS011;18709;51.140;4.088;2022-07-29T09:44:21;6.53;;;1.63;;
32216;SDS011;18709;51.140;4.088;2022-07-29T09:46:58;7.47;;;1.20;;
32216;SDS011;18709;51.140;4.088;2022-07-29T09:49:35;4.20;;;1.48;;
32216;SDS011;18709;51.140;4.088;2022-07-29T09:52:16;3.42;;;1.35;;
32216;SDS011;18709;51.140;4.088;2022-07-29T09:54:42;4.75;;;1.52;;
32216;SDS011;18709;51.140;4.088;2022-07-29T09:57:08;3.05;;;1.30;;
32216;SDS011;18709;51.140;4.088;2022-07-29T09:59:55;3.00;;;1.10;;
32216;SDS011;18709;51.140;4.088;2022-07-29T10:02:22;5.15;;;1.50;;
32216;SDS011;18709;51.140;4.088;2022-07-29T10:04:52;4.05;;;1.40;;
32216;SDS011;18709;51.140;4.088;2022-07-29T10:07:18;2.72;;;1.25;;
32216;SDS011;18709;51.140;4.088;2022-07-29T10:09:54;3.33;;;1.45;;
32216;SDS011;18709;51.140;4.088;2022-07-29T10:12:21;3.45;;;1.40;;
32216;SDS011;18709;51.140;4.088;2022-07-29T10:14:47;3.45;;;1.45;;
32216;SDS011;18709;51.140;4.088;2022-07-29T10:17:14;6.45;;;1.50;;
32216;SDS011;18709;51.140;4.088;2022-07-29T10:19:41;4.90;;;1.50;;
32216;SDS011;18709;51.140;4.088;2022-07-29T10:22:08;7.05;;;1.50;;
32216;SDS011;18709;51.140;4.088;2022-07-29T10:24:35;4.15;;;1.52;;
32216;SDS011;18709;51.140;4.088;2022-07-29T10:27:04;3.97;;;1.48;;
32216;SDS011;18709;51.140;4.088;2022-07-29T10:29:32;6.20;;;2.17;;
32216;SDS011;18709;51.140;4.088;2022-07-29T10:39:56;4.95;;;1.90;;
32216;SDS011;18709;51.140;4.088;2022-07-29T10:42:53;5.00;;;1.63;;
32216;SDS011;18709;51.140;4.088;2022-07-29T10:45:20;4.03;;;1.58;;
32216;SDS011;18709;51.140;4.088;2022-07-29T10:47:46;3.28;;;1.30;;
32216;SDS011;18709;51.140;4.088;2022-07-29T10:50:12;3.38;;;1.33;;
32216;SDS011;18709;51.140;4.088;2022-07-29T10:55:33;5.65;;;1.60;;
32216;SDS011;18709;51.140;4.088;2022-07-29T11:00:41;5.72;;;1.58;;
32216;SDS011;18709;51.140;4.088;2022-07-29T11:03:07;4.75;;;1.60;;
32216;SDS011;18709;51.140;4.088;2022-07-29T11:05:51;2.53;;;1.00;;
32216;SDS011;18709;51.140;4.088;2022-07-29T11:08:21;6.63;;;1.85;;
32216;SDS011;18709;51.140;4.088;2022-07-29T11:10:49;6.93;;;1.63;;
32216;SDS011;18709;51.140;4.088;2022-07-29T11:18:32;3.40;;;1.30;;
32216;SDS011;18709;51.140;4.088;2022-07-29T11:20:58;4.97;;;1.33;;
32216;SDS011;18709;51.140;4.088;2022-07-29T11:23:28;5.75;;;1.73;;
32216;SDS011;18709;51.140;4.088;2022-07-29T11:33:56;3.67;;;1.20;;
32216;SDS011;18709;51.140;4.088;2022-07-29T11:36:22;6.45;;;1.35;;
32216;SDS011;18709;51.140;4.088;2022-07-29T11:38:48;5.60;;;1.58;;
32216;SDS011;18709;51.140;4.088;2022-07-29T11:43:56;4.78;;;1.70;;
32216;SDS011;18709;51.140;4.088;2022-07-29T11:49:07;8.00;;;1.70;;
32216;SDS011;18709;51.140;4.088;2022-07-29T11:51:34;4.35;;;1.48;;
32216;SDS011;18709;51.140;4.088;2022-07-29T11:54:03;3.87;;;1.40;;
32216;SDS011;18709;51.140;4.088;2022-07-29T11:56:33;6.97;;;1.25;;
32216;SDS011;18709;51.140;4.088;2022-07-29T11:59:04;3.72;;;1.10;;
32216;SDS011;18709;51.140;4.088;2022-07-29T12:01:31;3.53;;;1.30;;
32216;SDS011;18709;51.140;4.088;2022-07-29T12:04:07;3.30;;;1.55;;
32216;SDS011;18709;51.140;4.088;2022-07-29T12:06:36;2.35;;;1.00;;
32216;SDS011;18709;51.140;4.088;2022-07-29T12:09:08;5.22;;;1.08;;
32216;SDS011;18709;51.140;4.088;2022-07-29T12:11:34;2.85;;;1.00;;
32216;SDS011;18709;51.140;4.088;2022-07-29T12:14:00;4.47;;;1.60;;
32216;SDS011;18709;51.140;4.088;2022-07-29T12:16:34;5.75;;;1.40;;
32216;SDS011;18709;51.140;4.088;2022-07-29T12:19:01;8.57;;;2.05;;
32216;SDS011;18709;51.140;4.088;2022-07-29T12:21:29;3.80;;;1.45;;
32216;SDS011;18709;51.140;4.088;2022-07-29T12:24:11;6.03;;;1.50;;
32216;SDS011;18709;51.140;4.088;2022-07-29T12:26:48;7.18;;;1.90;;
32216;SDS011;18709;51.140;4.088;2022-07-29T12:29:25;5.13;;;1.77;;
32216;SDS011;18709;51.140;4.088;2022-07-29T12:31:54;9.70;;;1.90;;
32216;SDS011;18709;51.140;4.088;2022-07-29T12:34:24;5.40;;;1.77;;
32216;SDS011;18709;51.140;4.088;2022-07-29T12:36:53;6.28;;;1.63;;
32216;SDS011;18709;51.140;4.088;2022-07-29T12:39:19;4.68;;;1.60;;
32216;SDS011;18709;51.140;4.088;2022-07-29T12:41:46;6.20;;;1.60;;
32216;SDS011;18709;51.140;4.088;2022-07-29T12:44:11;6.45;;;2.10;;
32216;SDS011;18709;51.140;4.088;2022-07-29T12:46:37;2.15;;;1.40;;
32216;SDS011;18709;51.140;4.088;2022-07-29T12:49:03;5.80;;;1.63;;
32216;SDS011;18709;51.140;4.088;2022-07-29T12:54:12;4.80;;;1.15;;
32216;SDS011;18709;51.140;4.088;2022-07-29T12:56:40;9.73;;;2.05;;
32216;SDS011;18709;51.140;4.088;2022-07-29T12:59:19;7.03;;;1.98;;
32216;SDS011;18709;51.140;4.088;2022-07-29T13:01:47;8.00;;;2.65;;
32216;SDS011;18709;51.140;4.088;2022-07-29T13:04:25;3.13;;;1.45;;
32216;SDS011;18709;51.140;4.088;2022-07-29T13:09:37;2.95;;;1.23;;
32216;SDS011;18709;51.140;4.088;2022-07-29T13:12:08;5.35;;;1.65;;
32216;SDS011;18709;51.140;4.088;2022-07-29T13:14:36;5.03;;;1.33;;
32216;SDS011;18709;51.140;4.088;2022-07-29T13:17:16;9.38;;;2.40;;
32216;SDS011;18709;51.140;4.088;2022-07-29T13:22:14;6.68;;;1.70;;
32216;SDS011;18709;51.140;4.088;2022-07-29T13:24:48;4.15;;;1.70;;
32216;SDS011;18709;51.140;4.088;2022-07-29T13:27:18;7.28;;;1.80;;
32216;SDS011;18709;51.140;4.088;2022-07-29T13:29:45;7.05;;;1.55;;
32216;SDS011;18709;51.140;4.088;2022-07-29T13:32:12;3.47;;;1.60;;
32216;SDS011;18709;51.140;4.088;2022-07-29T13:34:38;2.80;;;1.60;;
32216;SDS011;18709;51.140;4.088;2022-07-29T13:37:04;3.35;;;1.45;;
32216;SDS011;18709;51.140;4.088;2022-07-29T13:39:30;6.38;;;1.70;;
32216;SDS011;18709;51.140;4.088;2022-07-29T13:41:56;4.22;;;1.88;;
32216;SDS011;18709;51.140;4.088;2022-07-29T13:44:22;6.20;;;1.80;;
32216;SDS011;18709;51.140;4.088;2022-07-29T13:46:47;3.53;;;1.45;;
32216;SDS011;18709;51.140;4.088;2022-07-29T13:49:13;9.80;;;2.08;;
32216;SDS011;18709;51.140;4.088;2022-07-29T13:51:39;7.53;;;1.65;;
32216;SDS011;18709;51.140;4.088;2022-07-29T13:54:04;7.47;;;2.10;;
32216;SDS011;18709;51.140;4.088;2022-07-29T13:56:30;4.63;;;2.03;;
32216;SDS011;18709;51.140;4.088;2022-07-29T13:58:56;4.72;;;1.50;;
32216;SDS011;18709;51.140;4.088;2022-07-29T14:01:22;5.32;;;1.70;;
32216;SDS011;18709;51.140;4.088;2022-07-29T14:03:49;4.82;;;1.70;;
32216;SDS011;18709;51.140;4.088;2022-07-29T14:06:14;5.22;;;1.60;;
32216;SDS011;18709;51.140;4.088;2022-07-29T14:08:40;5.80;;;1.95;;
32216;SDS011;18709;51.140;4.088;2022-07-29T14:11:06;6.78;;;1.60;;
32216;SDS011;18709;51.140;4.088;2022-07-29T14:13:32;4.03;;;1.80;;
32216;SDS011;18709;51.140;4.088;2022-07-29T14:15:57;4.40;;;2.67;;
32216;SDS011;18709;51.140;4.088;2022-07-29T14:18:23;5.20;;;1.42;;
32216;SDS011;18709;51.140;4.088;2022-07-29T14:20:49;4.95;;;1.85;;
32216;SDS011;18709;51.140;4.088;2022-07-29T14:23:16;5.78;;;2.40;;
32216;SDS011;18709;51.140;4.088;2022-07-29T14:25:42;5.90;;;1.98;;
32216;SDS011;18709;51.140;4.088;2022-07-29T14:28:08;6.68;;;2.83;;
32216;SDS011;18709;51.140;4.088;2022-07-29T14:30:33;3.25;;;1.73;;
32216;SDS011;18709;51.140;4.088;2022-07-29T14:32:59;4.68;;;1.90;;
32216;SDS011;18709;51.140;4.088;2022-07-29T14:35:25;3.22;;;1.77;;
32216;SDS011;18709;51.140;4.088;2022-07-29T14:37:50;3.22;;;1.85;;
32216;SDS011;18709;51.140;4.088;2022-07-29T14:40:16;17.85;;;2.72;;
32216;SDS011;18709;51.140;4.088;2022-07-29T14:42:42;5.22;;;2.28;;
32216;SDS011;18709;51.140;4.088;2022-07-29T14:45:08;4.63;;;2.47;;
32216;SDS011;18709;51.140;4.088;2022-07-29T14:47:34;3.95;;;1.42;;
32216;SDS011;18709;51.140;4.088;2022-07-29T14:50:01;5.30;;;1.70;;
32216;SDS011;18709;51.140;4.088;2022-07-29T14:52:27;3.92;;;1.60;;
32216;SDS011;18709;51.140;4.088;2022-07-29T14:54:52;5.10;;;1.50;;
32216;SDS011;18709;51.140;4.088;2022-07-29T14:57:18;4.45;;;1.60;;
32216;SDS011;18709;51.140;4.088;2022-07-29T14:59:44;4.65;;;1.92;;
32216;SDS011;18709;51.140;4.088;2022-07-29T15:02:10;9.38;;;2.10;;
32216;SDS011;18709;51.140;4.088;2022-07-29T15:04:36;7.55;;;2.20;;
32216;SDS011;18709;51.140;4.088;2022-07-29T15:07:02;6.22;;;1.80;;
32216;SDS011;18709;51.140;4.088;2022-07-29T15:09:27;5.97;;;2.20;;
32216;SDS011;18709;51.140;4.088;2022-07-29T15:11:53;6.13;;;1.63;;
32216;SDS011;18709;51.140;4.088;2022-07-29T15:14:19;4.93;;;2.45;;
32216;SDS011;18709;51.140;4.088;2022-07-29T15:16:45;3.50;;;1.50;;
32216;SDS011;18709;51.140;4.088;2022-07-29T15:19:10;3.60;;;1.90;;
32216;SDS011;18709;51.140;4.088;2022-07-29T15:21:36;5.22;;;1.70;;
32216;SDS011;18709;51.140;4.088;2022-07-29T15:24:02;7.15;;;2.13;;
32216;SDS011;18709;51.140;4.088;2022-07-29T15:26:28;5.47;;;2.05;;
32216;SDS011;18709;51.140;4.088;2022-07-29T15:28:54;4.25;;;1.75;;
32216;SDS011;18709;51.140;4.088;2022-07-29T15:31:22;8.68;;;2.22;;
32216;SDS011;18709;51.140;4.088;2022-07-29T15:33:48;4.97;;;2.00;;
32216;SDS011;18709;51.140;4.088;2022-07-29T15:36:14;3.80;;;1.65;;
32216;SDS011;18709;51.140;4.088;2022-07-29T15:38:40;5.75;;;1.90;;
32216;SDS011;18709;51.140;4.088;2022-07-29T15:41:08;9.00;;;2.08;;
32216;SDS011;18709;51.140;4.088;2022-07-29T15:43:34;2.63;;;1.52;;
32216;SDS011;18709;51.140;4.088;2022-07-29T15:46:00;7.97;;;1.70;;
32216;SDS011;18709;51.140;4.088;2022-07-29T15:48:45;4.38;;;1.88;;
32216;SDS011;18709;51.140;4.088;2022-07-29T15:51:11;5.00;;;2.13;;
32216;SDS011;18709;51.140;4.088;2022-07-29T15:53:36;4.53;;;1.55;;
32216;SDS011;18709;51.140;4.088;2022-07-29T15:56:02;5.45;;;1.70;;
32216;SDS011;18709;51.140;4.088;2022-07-29T15:58:28;7.80;;;1.67;;
32216;SDS011;18709;51.140;4.088;2022-07-29T16:00:54;6.93;;;1.80;;